Senshu Maru — JCIR — position and weather

sailwx.info

Track history (hours):
 
Tides and Currents Weather Stations Pressure Air Temp Water Temp Dewpoint Dewpoint Depression Visibility Wind Speed Wind Dir Waves Ship Positions

Oceanographic research ship Senshu Maru (Japan)

Detailed information on ship capabilities available from University of Delaware's Ocean Information Center.

Last reported at 2019-Apr-15 06:01 UTC. Time now 2019-Apr-19 10:56 UTC.
Position N 33°53' E 134°54'.

Length 283 m; beam 44.8 m.

Type: Ship (hazmat cat A). MMSI: 431023000.

Date/timePositionNaut miles runAvg speedWind from/ knotsBaromVisibWave heightAir tempDewpointWater temp
2019-Apr-15 06:01N 33°53' E 134°54'513.5
2019-Apr-15 05:40N 33°58' E 134°54'210.9
2019-Apr-15 05:30N 33°60' E 134°55'611.8
2019-Apr-15 04:58N 34°06' E 134°57'511.2
2019-Apr-15 04:30N 34°11' E 134°58'5 9.8
2019-Apr-15 04:00N 34°16' E 134°58'713.5
2019-Apr-15 03:30N 34°22' E 135°01'713.4
2019-Apr-15 03:00N 34°26' E 135°07'713.3
2019-Apr-15 02:30N 34°30' E 135°14'612.1
2019-Apr-15 02:00N 34°33' E 135°20'3 6.1
2019-Apr-15 01:30N 34°34' E 135°24'1 1.0
2019-Apr-15 01:00N 34°34' E 135°24'0 0.0
2019-Apr-15 00:25N 34°34' E 135°24'0 0.0
2019-Apr-14 23:49N 34°34' E 135°24'0 0.0
2019-Apr-14 23:16N 34°34' E 135°24'0 0.0
2019-Apr-14 02:59N 34°34' E 135°24'0 0.1
2019-Apr-14 02:29N 34°34' E 135°24'1 1.3
2019-Apr-14 02:00N 34°34' E 135°24'3 5.9
2019-Apr-14 01:30N 34°33' E 135°20'510.7
2019-Apr-14 01:00N 34°31' E 135°15'612.1
2019-Apr-14 00:30N 34°27' E 135°09'611.7
2019-Apr-14 00:00N 34°23' E 135°04'611.3
2019-Apr-13 23:30N 34°18' E 134°60'611.6
2019-Apr-13 23:00N 34°12' E 134°59'510.3
2019-Apr-13 22:30N 34°07' E 134°58'4 8.4
2019-Apr-13 22:00N 34°03' E 134°58'510.8
2019-Apr-13 21:30N 33°58' E 134°58'612.7
2019-Apr-13 21:00N 33°51' E 134°58'714.6
2019-Apr-13 20:31N 33°44' E 134°57'611.2
2019-Apr-13 20:00N 33°39' E 134°60'1216.4
2019-Apr-13 19:15N 33°27' E 134°59'2 3.3
2019-Apr-13 18:47N 33°27' E 135°01'  
Track history (hours):
 
Tides and Currents Weather Stations Pressure Air Temp Water Temp Dewpoint Dewpoint Depression Visibility Wind Speed Wind Dir Waves Ship Positions

Oceanographic research ship Senshu Maru (Japan)

Detailed information on ship capabilities available from University of Delaware's Ocean Information Center.

Last reported at 2019-Apr-15 06:01 UTC. Time now 2019-Apr-19 10:56 UTC.
Position N 33°53' E 134°54'.

Length 283 m; beam 44.8 m.

Type: Ship (hazmat cat A). MMSI: 431023000.

Date/timePositionNaut miles runAvg speedWind from/ knotsBaromVisibWave heightAir tempDewpointWater temp
2019-Apr-15 06:01N 33°53' E 134°54'513.5
2019-Apr-15 05:40N 33°58' E 134°54'210.9
2019-Apr-15 05:30N 33°60' E 134°55'611.8
2019-Apr-15 04:58N 34°06' E 134°57'511.2
2019-Apr-15 04:30N 34°11' E 134°58'5 9.8
2019-Apr-15 04:00N 34°16' E 134°58'713.5
2019-Apr-15 03:30N 34°22' E 135°01'713.4
2019-Apr-15 03:00N 34°26' E 135°07'713.3
2019-Apr-15 02:30N 34°30' E 135°14'612.1
2019-Apr-15 02:00N 34°33' E 135°20'3 6.1
2019-Apr-15 01:30N 34°34' E 135°24'1 1.0
2019-Apr-15 01:00N 34°34' E 135°24'0 0.0
2019-Apr-15 00:25N 34°34' E 135°24'0 0.0
2019-Apr-14 23:49N 34°34' E 135°24'0 0.0
2019-Apr-14 23:16N 34°34' E 135°24'0 0.0
2019-Apr-14 02:59N 34°34' E 135°24'0 0.1
2019-Apr-14 02:29N 34°34' E 135°24'1 1.3
2019-Apr-14 02:00N 34°34' E 135°24'3 5.9
2019-Apr-14 01:30N 34°33' E 135°20'510.7
2019-Apr-14 01:00N 34°31' E 135°15'612.1
2019-Apr-14 00:30N 34°27' E 135°09'611.7
2019-Apr-14 00:00N 34°23' E 135°04'611.3
2019-Apr-13 23:30N 34°18' E 134°60'611.6
2019-Apr-13 23:00N 34°12' E 134°59'510.3
2019-Apr-13 22:30N 34°07' E 134°58'4 8.4
2019-Apr-13 22:00N 34°03' E 134°58'510.8
2019-Apr-13 21:30N 33°58' E 134°58'612.7
2019-Apr-13 21:00N 33°51' E 134°58'714.6
2019-Apr-13 20:31N 33°44' E 134°57'611.2
2019-Apr-13 20:00N 33°39' E 134°60'1216.4
2019-Apr-13 19:15N 33°27' E 134°59'2 3.3
2019-Apr-13 18:47N 33°27' E 135°01'  

Dump ship's entire track history